sensor_id;sensor_type;location;lat;lon;timestamp;P1;durP1;ratioP1;P2;durP2;ratioP2
8397;SDS011;4236;54.504;9.588;2023-04-02T00:04:11;26.83;;;25.43;;
8397;SDS011;4236;54.504;9.588;2023-04-02T00:06:51;26.47;;;25.17;;
8397;SDS011;4236;54.504;9.588;2023-04-02T00:09:28;26.63;;;24.80;;
8397;SDS011;4236;54.504;9.588;2023-04-02T00:12:06;27.50;;;25.90;;
8397;SDS011;4236;54.504;9.588;2023-04-02T00:14:46;27.90;;;26.40;;
8397;SDS011;4236;54.504;9.588;2023-04-02T00:17:16;27.40;;;26.30;;
8397;SDS011;4236;54.504;9.588;2023-04-02T00:19:45;28.97;;;27.40;;
8397;SDS011;4236;54.504;9.588;2023-04-02T00:22:19;27.03;;;25.83;;
8397;SDS011;4236;54.504;9.588;2023-04-02T00:24:49;26.83;;;25.43;;
8397;SDS011;4236;54.504;9.588;2023-04-02T00:27:19;26.63;;;25.40;;
8397;SDS011;4236;54.504;9.588;2023-04-02T00:29:48;25.60;;;24.50;;
8397;SDS011;4236;54.504;9.588;2023-04-02T00:32:20;25.23;;;24.13;;
8397;SDS011;4236;54.504;9.588;2023-04-02T00:34:50;26.33;;;24.93;;
8397;SDS011;4236;54.504;9.588;2023-04-02T00:37:19;26.53;;;25.43;;
8397;SDS011;4236;54.504;9.588;2023-04-02T00:39:50;26.97;;;25.70;;
8397;SDS011;4236;54.504;9.588;2023-04-02T00:42:22;26.67;;;25.47;;
8397;SDS011;4236;54.504;9.588;2023-04-02T00:44:52;27.37;;;25.40;;
8397;SDS011;4236;54.504;9.588;2023-04-02T00:47:21;26.63;;;25.43;;
8397;SDS011;4236;54.504;9.588;2023-04-02T00:49:53;26.60;;;25.40;;
8397;SDS011;4236;54.504;9.588;2023-04-02T00:52:25;29.33;;;26.87;;
8397;SDS011;4236;54.504;9.588;2023-04-02T00:54:58;27.30;;;25.50;;
8397;SDS011;4236;54.504;9.588;2023-04-02T00:57:29;27.10;;;25.90;;
8397;SDS011;4236;54.504;9.588;2023-04-02T01:00:00;27.33;;;25.90;;
8397;SDS011;4236;54.504;9.588;2023-04-02T01:02:38;26.20;;;25.10;;
8397;SDS011;4236;54.504;9.588;2023-04-02T01:05:19;26.63;;;25.33;;
8397;SDS011;4236;54.504;9.588;2023-04-02T01:07:55;27.40;;;26.10;;
8397;SDS011;4236;54.504;9.588;2023-04-02T01:10:40;26.87;;;25.57;;
8397;SDS011;4236;54.504;9.588;2023-04-02T01:13:22;26.07;;;24.87;;
8397;SDS011;4236;54.504;9.588;2023-04-02T01:15:57;25.83;;;24.53;;
8397;SDS011;4236;54.504;9.588;2023-04-02T01:18:36;25.67;;;24.67;;
8397;SDS011;4236;54.504;9.588;2023-04-02T01:21:28;26.33;;;25.13;;
8397;SDS011;4236;54.504;9.588;2023-04-02T01:24:03;26.00;;;25.00;;
8397;SDS011;4236;54.504;9.588;2023-04-02T01:26:35;25.80;;;24.73;;
8397;SDS011;4236;54.504;9.588;2023-04-02T01:29:13;25.43;;;24.33;;
8397;SDS011;4236;54.504;9.588;2023-04-02T01:31:43;25.60;;;24.50;;
8397;SDS011;4236;54.504;9.588;2023-04-02T01:34:13;26.33;;;24.93;;
8397;SDS011;4236;54.504;9.588;2023-04-02T01:36:45;25.30;;;24.30;;
8397;SDS011;4236;54.504;9.588;2023-04-02T01:39:25;25.30;;;24.30;;
8397;SDS011;4236;54.504;9.588;2023-04-02T01:42:03;25.40;;;24.30;;
8397;SDS011;4236;54.504;9.588;2023-04-02T01:44:41;25.70;;;24.70;;
8397;SDS011;4236;54.504;9.588;2023-04-02T01:47:11;25.20;;;24.20;;
8397;SDS011;4236;54.504;9.588;2023-04-02T01:49:41;25.17;;;24.07;;
8397;SDS011;4236;54.504;9.588;2023-04-02T01:52:11;25.90;;;24.90;;
8397;SDS011;4236;54.504;9.588;2023-04-02T01:54:42;24.87;;;23.87;;
8397;SDS011;4236;54.504;9.588;2023-04-02T01:57:12;25.10;;;24.10;;
8397;SDS011;4236;54.504;9.588;2023-04-02T01:59:42;26.13;;;25.13;;
8397;SDS011;4236;54.504;9.588;2023-04-02T02:02:10;26.33;;;25.23;;
8397;SDS011;4236;54.504;9.588;2023-04-02T02:04:40;25.97;;;24.77;;
8397;SDS011;4236;54.504;9.588;2023-04-02T02:07:10;26.37;;;25.27;;
8397;SDS011;4236;54.504;9.588;2023-04-02T02:09:41;27.20;;;26.00;;
8397;SDS011;4236;54.504;9.588;2023-04-02T02:12:11;27.00;;;25.90;;
8397;SDS011;4236;54.504;9.588;2023-04-02T02:14:45;28.10;;;26.90;;
8397;SDS011;4236;54.504;9.588;2023-04-02T02:17:14;26.20;;;25.10;;
8397;SDS011;4236;54.504;9.588;2023-04-02T02:19:45;26.07;;;25.07;;
8397;SDS011;4236;54.504;9.588;2023-04-02T02:22:16;26.67;;;25.60;;
8397;SDS011;4236;54.504;9.588;2023-04-02T02:24:51;30.47;;;28.80;;
8397;SDS011;4236;54.504;9.588;2023-04-02T02:30:27;25.20;;;24.30;;
8397;SDS011;4236;54.504;9.588;2023-04-02T02:32:59;25.10;;;24.07;;
8397;SDS011;4236;54.504;9.588;2023-04-02T02:35:32;24.63;;;23.63;;
8397;SDS011;4236;54.504;9.588;2023-04-02T02:41:11;24.30;;;23.40;;
8397;SDS011;4236;54.504;9.588;2023-04-02T02:43:43;25.47;;;24.47;;
8397;SDS011;4236;54.504;9.588;2023-04-02T02:46:21;25.60;;;24.50;;
8397;SDS011;4236;54.504;9.588;2023-04-02T02:48:52;25.93;;;24.70;;
8397;SDS011;4236;54.504;9.588;2023-04-02T02:51:22;26.90;;;25.67;;
8397;SDS011;4236;54.504;9.588;2023-04-02T02:53:55;27.40;;;26.20;;
8397;SDS011;4236;54.504;9.588;2023-04-02T02:56:29;27.27;;;26.17;;
8397;SDS011;4236;54.504;9.588;2023-04-02T02:58:59;26.63;;;25.53;;
8397;SDS011;4236;54.504;9.588;2023-04-02T03:01:29;26.23;;;25.13;;
8397;SDS011;4236;54.504;9.588;2023-04-02T03:03:58;26.90;;;25.80;;
8397;SDS011;4236;54.504;9.588;2023-04-02T03:06:27;25.83;;;24.83;;
8397;SDS011;4236;54.504;9.588;2023-04-02T03:08:56;26.03;;;25.00;;
8397;SDS011;4236;54.504;9.588;2023-04-02T03:11:32;26.60;;;25.43;;
8397;SDS011;4236;54.504;9.588;2023-04-02T03:14:06;25.83;;;24.63;;
8397;SDS011;4236;54.504;9.588;2023-04-02T03:16:43;25.77;;;24.77;;
8397;SDS011;4236;54.504;9.588;2023-04-02T03:19:17;25.43;;;24.53;;
8397;SDS011;4236;54.504;9.588;2023-04-02T03:21:54;25.47;;;24.27;;
8397;SDS011;4236;54.504;9.588;2023-04-02T03:24:29;26.37;;;24.90;;
8397;SDS011;4236;54.504;9.588;2023-04-02T03:27:04;24.83;;;23.93;;
8397;SDS011;4236;54.504;9.588;2023-04-02T03:29:38;25.47;;;24.47;;
8397;SDS011;4236;54.504;9.588;2023-04-02T03:32:13;25.50;;;24.50;;
8397;SDS011;4236;54.504;9.588;2023-04-02T03:34:45;25.43;;;24.43;;
8397;SDS011;4236;54.504;9.588;2023-04-02T03:37:19;24.73;;;23.80;;
8397;SDS011;4236;54.504;9.588;2023-04-02T03:39:51;25.87;;;24.87;;
8397;SDS011;4236;54.504;9.588;2023-04-02T03:42:23;25.60;;;24.50;;
8397;SDS011;4236;54.504;9.588;2023-04-02T03:44:53;26.20;;;24.93;;
8397;SDS011;4236;54.504;9.588;2023-04-02T03:47:28;27.07;;;25.97;;
8397;SDS011;4236;54.504;9.588;2023-04-02T03:50:02;27.87;;;26.53;;
8397;SDS011;4236;54.504;9.588;2023-04-02T03:52:33;26.67;;;25.57;;
8397;SDS011;4236;54.504;9.588;2023-04-02T03:55:08;26.77;;;25.47;;
8397;SDS011;4236;54.504;9.588;2023-04-02T03:57:42;26.17;;;25.07;;
8397;SDS011;4236;54.504;9.588;2023-04-02T04:00:19;26.93;;;25.83;;
8397;SDS011;4236;54.504;9.588;2023-04-02T04:02:51;26.10;;;25.10;;
8397;SDS011;4236;54.504;9.588;2023-04-02T04:05:23;26.47;;;25.47;;
8397;SDS011;4236;54.504;9.588;2023-04-02T04:07:56;27.33;;;26.03;;
8397;SDS011;4236;54.504;9.588;2023-04-02T04:10:27;26.67;;;25.50;;
8397;SDS011;4236;54.504;9.588;2023-04-02T04:13:00;28.20;;;26.80;;
8397;SDS011;4236;54.504;9.588;2023-04-02T04:15:31;27.43;;;26.13;;
8397;SDS011;4236;54.504;9.588;2023-04-02T04:18:07;28.03;;;26.73;;
8397;SDS011;4236;54.504;9.588;2023-04-02T04:20:46;26.40;;;25.00;;
8397;SDS011;4236;54.504;9.588;2023-04-02T04:23:30;26.50;;;25.30;;
8397;SDS011;4236;54.504;9.588;2023-04-02T04:25:59;26.73;;;25.73;;
8397;SDS011;4236;54.504;9.588;2023-04-02T04:28:36;26.23;;;25.17;;
8397;SDS011;4236;54.504;9.588;2023-04-02T04:31:12;26.30;;;25.30;;
8397;SDS011;4236;54.504;9.588;2023-04-02T04:33:48;26.10;;;25.10;;
8397;SDS011;4236;54.504;9.588;2023-04-02T04:36:21;26.13;;;25.03;;
8397;SDS011;4236;54.504;9.588;2023-04-02T04:38:55;26.00;;;24.90;;
8397;SDS011;4236;54.504;9.588;2023-04-02T04:41:27;26.70;;;25.50;;
8397;SDS011;4236;54.504;9.588;2023-04-02T04:43:59;26.40;;;25.40;;
8397;SDS011;4236;54.504;9.588;2023-04-02T04:46:31;25.93;;;24.93;;
8397;SDS011;4236;54.504;9.588;2023-04-02T04:49:08;26.27;;;25.27;;
8397;SDS011;4236;54.504;9.588;2023-04-02T04:51:41;27.37;;;26.17;;
8397;SDS011;4236;54.504;9.588;2023-04-02T04:54:14;26.80;;;25.80;;
8397;SDS011;4236;54.504;9.588;2023-04-02T04:56:44;26.73;;;25.63;;
8397;SDS011;4236;54.504;9.588;2023-04-02T04:59:16;26.17;;;25.07;;
8397;SDS011;4236;54.504;9.588;2023-04-02T05:01:49;27.07;;;25.97;;
8397;SDS011;4236;54.504;9.588;2023-04-02T05:04:24;26.17;;;25.20;;
8397;SDS011;4236;54.504;9.588;2023-04-02T05:06:59;24.80;;;23.90;;
8397;SDS011;4236;54.504;9.588;2023-04-02T05:09:31;24.83;;;23.93;;
8397;SDS011;4236;54.504;9.588;2023-04-02T05:12:05;25.93;;;24.63;;
8397;SDS011;4236;54.504;9.588;2023-04-02T05:14:41;25.17;;;23.97;;
8397;SDS011;4236;54.504;9.588;2023-04-02T05:17:16;24.70;;;23.70;;
8397;SDS011;4236;54.504;9.588;2023-04-02T05:19:50;24.17;;;23.13;;
8397;SDS011;4236;54.504;9.588;2023-04-02T05:22:24;24.30;;;23.27;;
8397;SDS011;4236;54.504;9.588;2023-04-02T05:25:01;23.93;;;22.93;;
8397;SDS011;4236;54.504;9.588;2023-04-02T05:27:42;24.17;;;23.27;;
8397;SDS011;4236;54.504;9.588;2023-04-02T05:33:20;24.63;;;23.23;;
8397;SDS011;4236;54.504;9.588;2023-04-02T05:35:52;23.70;;;22.90;;
8397;SDS011;4236;54.504;9.588;2023-04-02T05:38:25;25.20;;;24.30;;
8397;SDS011;4236;54.504;9.588;2023-04-02T05:40:57;24.57;;;23.67;;
8397;SDS011;4236;54.504;9.588;2023-04-02T05:43:29;24.67;;;23.77;;
8397;SDS011;4236;54.504;9.588;2023-04-02T05:46:01;25.30;;;24.30;;
8397;SDS011;4236;54.504;9.588;2023-04-02T05:48:40;24.27;;;23.33;;
8397;SDS011;4236;54.504;9.588;2023-04-02T05:51:15;24.60;;;23.40;;
8397;SDS011;4236;54.504;9.588;2023-04-02T05:53:46;23.87;;;22.67;;
8397;SDS011;4236;54.504;9.588;2023-04-02T05:56:19;22.50;;;21.70;;
8397;SDS011;4236;54.504;9.588;2023-04-02T05:58:50;22.37;;;21.67;;
8397;SDS011;4236;54.504;9.588;2023-04-02T06:01:26;21.73;;;21.03;;
8397;SDS011;4236;54.504;9.588;2023-04-02T06:03:59;21.50;;;20.70;;
8397;SDS011;4236;54.504;9.588;2023-04-02T06:06:52;19.47;;;18.87;;
8397;SDS011;4236;54.504;9.588;2023-04-02T06:09:27;19.73;;;19.03;;
8397;SDS011;4236;54.504;9.588;2023-04-02T06:12:07;18.63;;;17.87;;
8397;SDS011;4236;54.504;9.588;2023-04-02T06:14:42;18.83;;;18.13;;
8397;SDS011;4236;54.504;9.588;2023-04-02T06:17:10;17.90;;;17.20;;
8397;SDS011;4236;54.504;9.588;2023-04-02T06:19:41;17.70;;;17.10;;
8397;SDS011;4236;54.504;9.588;2023-04-02T06:22:14;17.23;;;16.63;;
8397;SDS011;4236;54.504;9.588;2023-04-02T06:24:49;18.07;;;17.47;;
8397;SDS011;4236;54.504;9.588;2023-04-02T06:27:22;18.00;;;17.40;;
8397;SDS011;4236;54.504;9.588;2023-04-02T06:29:53;16.90;;;16.30;;
8397;SDS011;4236;54.504;9.588;2023-04-02T06:32:23;17.20;;;16.53;;
8397;SDS011;4236;54.504;9.588;2023-04-02T06:34:52;16.80;;;16.20;;
8397;SDS011;4236;54.504;9.588;2023-04-02T06:37:22;16.40;;;15.80;;
8397;SDS011;4236;54.504;9.588;2023-04-02T06:39:54;16.90;;;16.33;;
8397;SDS011;4236;54.504;9.588;2023-04-02T06:42:23;16.03;;;15.53;;
8397;SDS011;4236;54.504;9.588;2023-04-02T06:44:54;16.27;;;15.57;;
8397;SDS011;4236;54.504;9.588;2023-04-02T06:47:25;17.13;;;16.43;;
8397;SDS011;4236;54.504;9.588;2023-04-02T06:49:59;15.60;;;15.10;;
8397;SDS011;4236;54.504;9.588;2023-04-02T06:52:35;15.60;;;15.10;;
8397;SDS011;4236;54.504;9.588;2023-04-02T06:55:16;14.70;;;14.30;;
8397;SDS011;4236;54.504;9.588;2023-04-02T06:57:56;14.23;;;13.73;;
8397;SDS011;4236;54.504;9.588;2023-04-02T07:00:25;14.07;;;13.67;;
8397;SDS011;4236;54.504;9.588;2023-04-02T07:02:57;14.33;;;13.83;;
8397;SDS011;4236;54.504;9.588;2023-04-02T07:05:28;14.30;;;13.80;;
8397;SDS011;4236;54.504;9.588;2023-04-02T07:07:58;15.50;;;14.60;;
8397;SDS011;4236;54.504;9.588;2023-04-02T07:10:25;15.20;;;14.80;;
8397;SDS011;4236;54.504;9.588;2023-04-02T07:12:53;14.83;;;14.33;;
8397;SDS011;4236;54.504;9.588;2023-04-02T07:15:21;14.73;;;14.20;;
8397;SDS011;4236;54.504;9.588;2023-04-02T07:17:50;13.97;;;13.47;;
8397;SDS011;4236;54.504;9.588;2023-04-02T07:20:23;14.00;;;13.50;;
8397;SDS011;4236;54.504;9.588;2023-04-02T07:22:54;14.60;;;14.20;;
8397;SDS011;4236;54.504;9.588;2023-04-02T07:25:23;14.87;;;13.97;;
8397;SDS011;4236;54.504;9.588;2023-04-02T07:27:53;14.40;;;14.00;;
8397;SDS011;4236;54.504;9.588;2023-04-02T07:30:21;14.00;;;13.50;;
8397;SDS011;4236;54.504;9.588;2023-04-02T07:32:49;13.70;;;13.20;;
8397;SDS011;4236;54.504;9.588;2023-04-02T07:35:17;13.20;;;12.90;;
8397;SDS011;4236;54.504;9.588;2023-04-02T07:37:45;13.70;;;13.20;;
8397;SDS011;4236;54.504;9.588;2023-04-02T07:40:14;13.70;;;13.10;;
8397;SDS011;4236;54.504;9.588;2023-04-02T07:42:45;13.30;;;12.80;;
8397;SDS011;4236;54.504;9.588;2023-04-02T07:45:13;13.97;;;13.37;;
8397;SDS011;4236;54.504;9.588;2023-04-02T07:47:41;12.90;;;12.60;;
8397;SDS011;4236;54.504;9.588;2023-04-02T07:50:09;12.63;;;12.33;;
8397;SDS011;4236;54.504;9.588;2023-04-02T07:52:37;12.93;;;12.53;;
8397;SDS011;4236;54.504;9.588;2023-04-02T07:55:07;12.40;;;12.10;;
8397;SDS011;4236;54.504;9.588;2023-04-02T07:57:37;13.10;;;12.50;;
8397;SDS011;4236;54.504;9.588;2023-04-02T08:00:11;11.50;;;11.20;;
8397;SDS011;4236;54.504;9.588;2023-04-02T08:02:40;11.60;;;11.10;;
8397;SDS011;4236;54.504;9.588;2023-04-02T08:05:08;11.40;;;11.07;;
8397;SDS011;4236;54.504;9.588;2023-04-02T08:07:36;10.90;;;10.60;;
8397;SDS011;4236;54.504;9.588;2023-04-02T08:10:05;12.00;;;11.50;;
8397;SDS011;4236;54.504;9.588;2023-04-02T08:12:33;11.97;;;11.67;;
8397;SDS011;4236;54.504;9.588;2023-04-02T08:15:01;10.70;;;10.40;;
8397;SDS011;4236;54.504;9.588;2023-04-02T08:17:32;10.47;;;10.00;;
8397;SDS011;4236;54.504;9.588;2023-04-02T08:20:00;10.70;;;10.30;;
8397;SDS011;4236;54.504;9.588;2023-04-02T08:22:27;10.70;;;10.00;;
8397;SDS011;4236;54.504;9.588;2023-04-02T08:24:56;11.23;;;10.87;;
8397;SDS011;4236;54.504;9.588;2023-04-02T08:27:24;11.50;;;10.90;;
8397;SDS011;4236;54.504;9.588;2023-04-02T08:29:52;11.30;;;10.90;;
8397;SDS011;4236;54.504;9.588;2023-04-02T08:32:20;11.03;;;10.73;;
8397;SDS011;4236;54.504;9.588;2023-04-02T08:34:51;11.40;;;11.00;;
8397;SDS011;4236;54.504;9.588;2023-04-02T08:37:18;10.60;;;10.30;;
8397;SDS011;4236;54.504;9.588;2023-04-02T08:39:46;9.93;;;9.60;;
8397;SDS011;4236;54.504;9.588;2023-04-02T08:42:18;10.73;;;10.43;;
8397;SDS011;4236;54.504;9.588;2023-04-02T08:44:52;10.83;;;10.27;;
8397;SDS011;4236;54.504;9.588;2023-04-02T08:47:49;10.03;;;9.37;;
8397;SDS011;4236;54.504;9.588;2023-04-02T08:51:09;8.20;;;7.90;;
8397;SDS011;4236;54.504;9.588;2023-04-02T08:53:48;8.07;;;7.80;;
8397;SDS011;4236;54.504;9.588;2023-04-02T08:56:18;7.60;;;7.40;;
8397;SDS011;4236;54.504;9.588;2023-04-02T08:58:50;7.80;;;7.60;;
8397;SDS011;4236;54.504;9.588;2023-04-02T09:01:25;8.10;;;7.77;;
8397;SDS011;4236;54.504;9.588;2023-04-02T09:04:02;7.00;;;6.80;;
8397;SDS011;4236;54.504;9.588;2023-04-02T09:06:41;7.10;;;6.83;;
8397;SDS011;4236;54.504;9.588;2023-04-02T09:09:10;6.90;;;6.70;;
8397;SDS011;4236;54.504;9.588;2023-04-02T09:11:40;7.10;;;6.80;;
8397;SDS011;4236;54.504;9.588;2023-04-02T09:14:15;6.90;;;6.70;;
8397;SDS011;4236;54.504;9.588;2023-04-02T09:16:45;6.30;;;6.10;;
8397;SDS011;4236;54.504;9.588;2023-04-02T09:19:17;6.20;;;6.00;;
8397;SDS011;4236;54.504;9.588;2023-04-02T09:22:01;6.80;;;6.50;;
8397;SDS011;4236;54.504;9.588;2023-04-02T09:24:34;5.90;;;5.80;;
8397;SDS011;4236;54.504;9.588;2023-04-02T09:27:03;6.83;;;6.47;;
8397;SDS011;4236;54.504;9.588;2023-04-02T09:29:43;9.07;;;8.10;;
8397;SDS011;4236;54.504;9.588;2023-04-02T09:32:22;7.73;;;7.33;;
8397;SDS011;4236;54.504;9.588;2023-04-02T09:35:05;6.43;;;6.23;;
8397;SDS011;4236;54.504;9.588;2023-04-02T09:38:10;6.50;;;6.07;;
8397;SDS011;4236;54.504;9.588;2023-04-02T09:40:45;6.30;;;6.13;;
8397;SDS011;4236;54.504;9.588;2023-04-02T09:43:16;5.93;;;5.67;;
8397;SDS011;4236;54.504;9.588;2023-04-02T09:45:53;5.03;;;4.83;;
8397;SDS011;4236;54.504;9.588;2023-04-02T09:48:24;5.30;;;5.10;;
8397;SDS011;4236;54.504;9.588;2023-04-02T09:51:02;5.10;;;4.90;;
8397;SDS011;4236;54.504;9.588;2023-04-02T09:53:34;5.00;;;4.70;;
8397;SDS011;4236;54.504;9.588;2023-04-02T09:56:06;5.33;;;4.93;;
8397;SDS011;4236;54.504;9.588;2023-04-02T09:58:36;7.97;;;4.93;;
8397;SDS011;4236;54.504;9.588;2023-04-02T10:01:04;5.17;;;4.97;;
8397;SDS011;4236;54.504;9.588;2023-04-02T10:03:36;5.33;;;5.13;;
8397;SDS011;4236;54.504;9.588;2023-04-02T10:06:05;5.60;;;5.50;;
8397;SDS011;4236;54.504;9.588;2023-04-02T10:08:36;6.00;;;5.90;;
8397;SDS011;4236;54.504;9.588;2023-04-02T10:11:06;5.73;;;5.57;;
8397;SDS011;4236;54.504;9.588;2023-04-02T10:13:39;5.50;;;5.30;;
8397;SDS011;4236;54.504;9.588;2023-04-02T10:16:15;5.20;;;5.00;;
8397;SDS011;4236;54.504;9.588;2023-04-02T10:18:47;4.60;;;4.50;;
8397;SDS011;4236;54.504;9.588;2023-04-02T10:21:18;4.90;;;4.80;;
8397;SDS011;4236;54.504;9.588;2023-04-02T10:23:51;5.20;;;5.00;;
8397;SDS011;4236;54.504;9.588;2023-04-02T10:26:30;5.30;;;5.10;;
8397;SDS011;4236;54.504;9.588;2023-04-02T10:29:16;5.00;;;4.80;;
8397;SDS011;4236;54.504;9.588;2023-04-02T10:31:58;4.73;;;4.57;;
8397;SDS011;4236;54.504;9.588;2023-04-02T10:34:33;5.10;;;4.83;;
8397;SDS011;4236;54.504;9.588;2023-04-02T10:37:12;4.40;;;4.30;;
8397;SDS011;4236;54.504;9.588;2023-04-02T10:40:09;4.17;;;4.07;;
8397;SDS011;4236;54.504;9.588;2023-04-02T10:42:42;4.60;;;4.50;;
8397;SDS011;4236;54.504;9.588;2023-04-02T10:45:30;4.60;;;4.50;;
8397;SDS011;4236;54.504;9.588;2023-04-02T10:48:05;4.97;;;4.67;;
8397;SDS011;4236;54.504;9.588;2023-04-02T10:50:44;4.50;;;4.30;;
8397;SDS011;4236;54.504;9.588;2023-04-02T10:53:18;6.20;;;4.47;;
8397;SDS011;4236;54.504;9.588;2023-04-02T10:55:50;5.00;;;4.70;;
8397;SDS011;4236;54.504;9.588;2023-04-02T10:58:22;4.10;;;3.87;;
8397;SDS011;4236;54.504;9.588;2023-04-02T11:00:52;4.70;;;4.50;;
8397;SDS011;4236;54.504;9.588;2023-04-02T11:03:27;4.90;;;4.60;;
8397;SDS011;4236;54.504;9.588;2023-04-02T11:05:59;4.63;;;4.43;;
8397;SDS011;4236;54.504;9.588;2023-04-02T11:08:37;5.07;;;4.67;;
8397;SDS011;4236;54.504;9.588;2023-04-02T11:11:10;4.80;;;4.60;;
8397;SDS011;4236;54.504;9.588;2023-04-02T11:13:44;4.63;;;4.33;;
8397;SDS011;4236;54.504;9.588;2023-04-02T11:16:16;4.80;;;4.60;;
8397;SDS011;4236;54.504;9.588;2023-04-02T11:21:50;5.10;;;4.90;;
8397;SDS011;4236;54.504;9.588;2023-04-02T11:24:29;5.60;;;5.20;;
8397;SDS011;4236;54.504;9.588;2023-04-02T11:27:05;4.50;;;4.30;;
8397;SDS011;4236;54.504;9.588;2023-04-02T11:29:41;5.03;;;4.67;;
8397;SDS011;4236;54.504;9.588;2023-04-02T11:34:58;5.33;;;5.10;;
8397;SDS011;4236;54.504;9.588;2023-04-02T11:37:33;4.53;;;4.13;;
8397;SDS011;4236;54.504;9.588;2023-04-02T11:40:06;4.57;;;4.27;;
8397;SDS011;4236;54.504;9.588;2023-04-02T11:46:39;4.40;;;4.13;;
8397;SDS011;4236;54.504;9.588;2023-04-02T11:52:23;4.40;;;4.30;;
8397;SDS011;4236;54.504;9.588;2023-04-02T11:54:56;4.53;;;4.33;;
8397;SDS011;4236;54.504;9.588;2023-04-02T12:04:30;5.47;;;4.37;;
8397;SDS011;4236;54.504;9.588;2023-04-02T12:07:11;4.37;;;4.17;;
8397;SDS011;4236;54.504;9.588;2023-04-02T12:09:53;4.47;;;4.00;;
8397;SDS011;4236;54.504;9.588;2023-04-02T12:12:24;4.37;;;4.27;;
8397;SDS011;4236;54.504;9.588;2023-04-02T12:14:54;5.63;;;5.33;;
8397;SDS011;4236;54.504;9.588;2023-04-02T12:17:27;3.90;;;3.80;;
8397;SDS011;4236;54.504;9.588;2023-04-02T12:19:58;5.83;;;5.33;;
8397;SDS011;4236;54.504;9.588;2023-04-02T12:22:31;4.93;;;4.63;;
8397;SDS011;4236;54.504;9.588;2023-04-02T12:25:01;5.33;;;4.70;;
8397;SDS011;4236;54.504;9.588;2023-04-02T12:27:31;4.17;;;4.00;;
8397;SDS011;4236;54.504;9.588;2023-04-02T12:30:10;5.33;;;5.03;;
8397;SDS011;4236;54.504;9.588;2023-04-02T12:32:39;4.30;;;4.10;;
8397;SDS011;4236;54.504;9.588;2023-04-02T12:35:16;4.07;;;3.77;;
8397;SDS011;4236;54.504;9.588;2023-04-02T12:37:54;4.17;;;3.97;;
8397;SDS011;4236;54.504;9.588;2023-04-02T12:40:22;4.60;;;4.40;;
8397;SDS011;4236;54.504;9.588;2023-04-02T12:42:51;5.70;;;4.40;;
8397;SDS011;4236;54.504;9.588;2023-04-02T12:45:22;4.57;;;4.37;;
8397;SDS011;4236;54.504;9.588;2023-04-02T12:47:54;4.90;;;4.40;;
8397;SDS011;4236;54.504;9.588;2023-04-02T12:50:24;5.10;;;4.60;;
8397;SDS011;4236;54.504;9.588;2023-04-02T12:52:52;4.60;;;4.40;;
8397;SDS011;4236;54.504;9.588;2023-04-02T12:55:24;4.50;;;4.23;;
8397;SDS011;4236;54.504;9.588;2023-04-02T12:57:54;4.30;;;4.10;;
8397;SDS011;4236;54.504;9.588;2023-04-02T13:00:29;4.37;;;4.07;;
8397;SDS011;4236;54.504;9.588;2023-04-02T13:05:49;4.40;;;4.10;;
8397;SDS011;4236;54.504;9.588;2023-04-02T13:08:21;4.43;;;4.00;;
8397;SDS011;4236;54.504;9.588;2023-04-02T13:10:52;4.57;;;4.30;;
8397;SDS011;4236;54.504;9.588;2023-04-02T13:13:25;4.57;;;4.27;;
8397;SDS011;4236;54.504;9.588;2023-04-02T13:16:03;7.60;;;7.13;;
8397;SDS011;4236;54.504;9.588;2023-04-02T13:18:34;9.77;;;8.90;;
8397;SDS011;4236;54.504;9.588;2023-04-02T13:21:05;16.63;;;11.33;;
8397;SDS011;4236;54.504;9.588;2023-04-02T13:23:34;14.00;;;11.00;;
8397;SDS011;4236;54.504;9.588;2023-04-02T13:26:09;9.43;;;8.53;;
8397;SDS011;4236;54.504;9.588;2023-04-02T13:28:43;5.47;;;5.00;;
8397;SDS011;4236;54.504;9.588;2023-04-02T13:31:22;4.30;;;4.07;;
8397;SDS011;4236;54.504;9.588;2023-04-02T13:33:49;3.83;;;3.73;;
8397;SDS011;4236;54.504;9.588;2023-04-02T13:36:19;5.23;;;4.83;;
8397;SDS011;4236;54.504;9.588;2023-04-02T13:38:47;3.70;;;3.60;;
8397;SDS011;4236;54.504;9.588;2023-04-02T13:41:16;4.67;;;4.33;;
8397;SDS011;4236;54.504;9.588;2023-04-02T13:43:47;4.10;;;4.00;;
8397;SDS011;4236;54.504;9.588;2023-04-02T13:46:17;3.53;;;3.43;;
8397;SDS011;4236;54.504;9.588;2023-04-02T13:48:48;5.00;;;3.80;;
8397;SDS011;4236;54.504;9.588;2023-04-02T13:51:17;3.70;;;3.60;;
8397;SDS011;4236;54.504;9.588;2023-04-02T13:53:47;3.87;;;3.70;;
8397;SDS011;4236;54.504;9.588;2023-04-02T13:56:19;3.50;;;3.40;;
8397;SDS011;4236;54.504;9.588;2023-04-02T13:58:48;3.53;;;3.30;;
8397;SDS011;4236;54.504;9.588;2023-04-02T14:01:16;4.00;;;3.80;;
8397;SDS011;4236;54.504;9.588;2023-04-02T14:03:45;3.73;;;3.53;;
8397;SDS011;4236;54.504;9.588;2023-04-02T14:06:15;3.50;;;3.40;;
8397;SDS011;4236;54.504;9.588;2023-04-02T14:08:51;3.17;;;3.07;;
8397;SDS011;4236;54.504;9.588;2023-04-02T14:11:28;3.80;;;3.60;;
8397;SDS011;4236;54.504;9.588;2023-04-02T14:14:09;3.03;;;2.93;;
8397;SDS011;4236;54.504;9.588;2023-04-02T14:16:50;3.80;;;3.30;;
8397;SDS011;4236;54.504;9.588;2023-04-02T14:19:39;3.73;;;3.53;;
8397;SDS011;4236;54.504;9.588;2023-04-02T14:22:19;3.50;;;3.40;;
8397;SDS011;4236;54.504;9.588;2023-04-02T14:25:04;3.50;;;3.40;;
8397;SDS011;4236;54.504;9.588;2023-04-02T14:27:44;3.80;;;3.50;;
8397;SDS011;4236;54.504;9.588;2023-04-02T14:30:19;3.70;;;3.50;;
8397;SDS011;4236;54.504;9.588;2023-04-02T14:32:52;3.33;;;3.23;;
8397;SDS011;4236;54.504;9.588;2023-04-02T14:35:27;3.33;;;3.17;;
8397;SDS011;4236;54.504;9.588;2023-04-02T14:38:02;3.97;;;3.63;;
8397;SDS011;4236;54.504;9.588;2023-04-02T14:40:42;3.80;;;3.60;;
8397;SDS011;4236;54.504;9.588;2023-04-02T14:43:18;4.37;;;3.97;;
8397;SDS011;4236;54.504;9.588;2023-04-02T14:45:53;3.53;;;3.20;;
8397;SDS011;4236;54.504;9.588;2023-04-02T14:48:39;3.80;;;3.70;;
8397;SDS011;4236;54.504;9.588;2023-04-02T14:51:14;4.10;;;3.90;;
8397;SDS011;4236;54.504;9.588;2023-04-02T14:53:50;4.30;;;3.90;;
8397;SDS011;4236;54.504;9.588;2023-04-02T14:56:24;4.23;;;3.90;;
8397;SDS011;4236;54.504;9.588;2023-04-02T14:58:54;3.90;;;3.70;;
8397;SDS011;4236;54.504;9.588;2023-04-02T15:01:30;3.80;;;3.60;;
8397;SDS011;4236;54.504;9.588;2023-04-02T15:04:04;4.27;;;3.97;;
8397;SDS011;4236;54.504;9.588;2023-04-02T15:06:37;4.20;;;4.00;;
8397;SDS011;4236;54.504;9.588;2023-04-02T15:09:10;3.30;;;3.10;;
8397;SDS011;4236;54.504;9.588;2023-04-02T15:11:43;3.87;;;3.67;;
8397;SDS011;4236;54.504;9.588;2023-04-02T15:14:15;3.30;;;3.13;;
8397;SDS011;4236;54.504;9.588;2023-04-02T15:16:46;4.20;;;3.80;;
8397;SDS011;4236;54.504;9.588;2023-04-02T15:19:15;4.30;;;4.10;;
8397;SDS011;4236;54.504;9.588;2023-04-02T15:21:47;4.20;;;4.00;;
8397;SDS011;4236;54.504;9.588;2023-04-02T15:24:30;3.87;;;3.70;;
8397;SDS011;4236;54.504;9.588;2023-04-02T15:27:13;9.43;;;8.30;;
8397;SDS011;4236;54.504;9.588;2023-04-02T15:29:53;11.67;;;10.57;;
8397;SDS011;4236;54.504;9.588;2023-04-02T15:32:28;7.17;;;6.57;;
8397;SDS011;4236;54.504;9.588;2023-04-02T15:35:05;6.63;;;5.93;;
8397;SDS011;4236;54.504;9.588;2023-04-02T15:37:43;3.60;;;3.40;;
8397;SDS011;4236;54.504;9.588;2023-04-02T15:40:22;9.23;;;7.90;;
8397;SDS011;4236;54.504;9.588;2023-04-02T15:43:00;4.20;;;3.43;;
8397;SDS011;4236;54.504;9.588;2023-04-02T15:45:40;4.37;;;4.13;;
8397;SDS011;4236;54.504;9.588;2023-04-02T15:48:18;12.00;;;8.70;;
8397;SDS011;4236;54.504;9.588;2023-04-02T15:51:19;11.33;;;9.70;;
8397;SDS011;4236;54.504;9.588;2023-04-02T15:53:59;26.43;;;19.73;;
8397;SDS011;4236;54.504;9.588;2023-04-02T15:56:39;4.73;;;4.33;;
8397;SDS011;4236;54.504;9.588;2023-04-02T15:59:22;3.37;;;3.17;;
8397;SDS011;4236;54.504;9.588;2023-04-02T16:02:11;3.80;;;3.60;;
8397;SDS011;4236;54.504;9.588;2023-04-02T16:04:56;3.53;;;3.43;;
8397;SDS011;4236;54.504;9.588;2023-04-02T16:07:44;3.13;;;2.93;;
8397;SDS011;4236;54.504;9.588;2023-04-02T16:10:35;3.47;;;3.27;;
8397;SDS011;4236;54.504;9.588;2023-04-02T16:13:11;4.03;;;3.57;;
8397;SDS011;4236;54.504;9.588;2023-04-02T16:15:45;4.00;;;3.80;;